Terminal Aerodrome Forecast
Issued by NWS

Home | Current Version | Previous Version | Text Only | Print | Product List | Glossary On
Versions: 1 2 3 4 5 6 7 8 9 10 11 12 13 14 15 16 17 18 19 20 21 22 23 24 25 26 27 28 29 30 31
000
FTUS45 KGJT 270536
TAFVEL
TAF
KVEL 270536Z 2706/2806 VRB05KT P6SM VCTS SCT070CB OVC100
     FM270600 33005KT P6SM VCSH SCT070 OVC100
     FM271000 VRB03KT P6SM -SHRA VCTS SCT040CB OVC060
     FM271800 18005KT P6SM VCTS SCT060CB BKN080
     FM280100 02005KT P6SM VCSH SCT050 OVC080=

USA.gov is the U.S. government's official web portal to all federal, state and local government web resources and services.